Time;durP1;ratioP1;P1;durP2;ratioP2;P2;SDS_P1;SDS_P2;PMS_P1;PMS_P2;Temp;Humidity;BMP_temperature;BMP_pressure;BME280_temperature;BME280_humidity;BME280_pressure;Samples;Min_cycle;Max_cycle;Signal;HPM_P1;HPM_P2
2022/06/29 00:01:16;;;;;;;16.70;3.70;;;;;;;21.84;100.00;100158.13;4916581;28;20040;-85
2022/06/29 00:03:42;;;;;;;14.10;3.17;;;;;;;21.87;100.00;100158.47;4917799;29;20048;-85
2022/06/29 00:06:07;;;;;;;10.57;3.42;;;;;;;21.89;100.00;100159.06;4918177;28;20078;-84
2022/06/29 00:08:33;;;;;;;13.52;3.28;;;;;;;21.74;100.00;100157.97;4918879;28;20122;-84
2022/06/29 00:10:59;;;;;;;15.82;3.33;;;;;;;21.70;100.00;100154.09;4918033;29;20120;-84
2022/06/29 00:13:24;;;;;;;18.40;3.30;;;;;;;21.55;100.00;100151.94;4917467;29;20043;-84
2022/06/29 00:15:50;;;;;;;13.82;3.60;;;;;;;21.56;100.00;100150.88;4918307;29;20090;-85
2022/06/29 00:18:15;;;;;;;12.60;3.80;;;;;;;21.35;100.00;100146.19;4916765;28;20036;-85
2022/06/29 00:20:41;;;;;;;14.45;3.25;;;;;;;21.24;100.00;100137.09;4917907;29;20036;-84
2022/06/29 00:23:07;;;;;;;11.27;3.33;;;;;;;21.17;100.00;100138.28;4916514;29;20040;-85
2022/06/29 00:25:32;;;;;;;16.65;3.28;;;;;;;21.13;100.00;100130.69;4916957;28;20123;-84
2022/06/29 00:27:58;;;;;;;11.10;3.67;;;;;;;21.01;100.00;100132.56;4919372;29;20466;-85
2022/06/29 00:30:23;;;;;;;14.90;3.42;;;;;;;20.95;100.00;100128.13;4918361;28;20040;-85
2022/06/29 00:32:49;;;;;;;11.40;3.03;;;;;;;21.07;100.00;100126.25;4918028;29;20040;-86
2022/06/29 00:35:14;;;;;;;16.67;3.72;;;;;;;21.04;100.00;100131.28;4917035;28;20040;-85
2022/06/29 00:37:40;;;;;;;13.27;3.75;;;;;;;20.93;100.00;100135.66;4919004;29;20036;-83
2022/06/29 00:40:07;;;;;;;9.10;3.67;;;;;;;20.94;100.00;100126.53;4917630;29;20036;-84
2022/06/29 00:42:33;;;;;;;17.63;3.88;;;;;;;21.01;100.00;100127.19;4918709;29;20039;-86
2022/06/29 00:44:59;;;;;;;12.65;3.47;;;;;;;21.08;100.00;100135.94;4916444;29;20048;-85
2022/06/29 00:47:25;;;;;;;14.95;3.97;;;;;;;21.17;100.00;100131.03;4922733;29;20036;-85
2022/06/29 00:49:50;;;;;;;11.52;3.78;;;;;;;21.15;100.00;100133.13;4929822;29;20033;-84
2022/06/29 00:52:20;;;;;;;14.05;4.07;;;;;;;21.01;100.00;100124.47;4928722;29;20043;-84
2022/06/29 00:54:52;;;;;;;17.10;5.03;;;;;;;20.93;100.00;100130.25;4927634;29;20123;-86
2022/06/29 00:57:20;;;;;;;20.05;4.28;;;;;;;21.00;100.00;100132.81;4917404;29;20124;-85
2022/06/29 00:59:48;;;;;;;16.52;3.55;;;;;;;21.08;100.00;100133.25;4917267;29;20040;-86
2022/06/29 01:02:15;;;;;;;22.08;4.05;;;;;;;21.20;100.00;100129.72;4916835;29;20047;-86
2022/06/29 01:04:42;;;;;;;23.50;4.72;;;;;;;21.25;100.00;100132.50;4914808;28;20511;-85
2022/06/29 01:07:08;;;;;;;15.57;4.45;;;;;;;21.36;100.00;100123.56;4916505;29;20036;-85
2022/06/29 01:09:34;;;;;;;13.80;5.07;;;;;;;21.29;100.00;100131.78;4915666;29;20067;-85
2022/06/29 01:12:01;;;;;;;12.00;3.22;;;;;;;21.44;100.00;100126.66;4915067;29;20032;-84
2022/06/29 01:14:27;;;;;;;16.80;4.28;;;;;;;21.36;100.00;100123.56;4916122;28;20519;-86
2022/06/29 01:16:55;;;;;;;12.52;4.00;;;;;;;21.39;100.00;100123.06;4916286;29;20119;-85
2022/06/29 01:19:21;;;;;;;20.55;4.30;;;;;;;21.37;100.00;100127.91;4916378;28;20039;-83
2022/06/29 01:21:51;;;;;;;16.98;4.28;;;;;;;21.47;100.00;100125.38;4916334;29;20474;-86
2022/06/29 01:24:18;;;;;;;16.95;4.22;;;;;;;21.48;100.00;100127.81;4915484;29;20036;-84
2022/06/29 01:26:44;;;;;;;16.48;4.25;;;;;;;21.58;100.00;100133.41;4915449;29;20040;-83
2022/06/29 01:29:09;;;;;;;22.95;4.55;;;;;;;21.36;100.00;100131.66;4914221;28;20555;-84
2022/06/29 01:31:35;;;;;;;18.42;4.85;;;;;;;21.28;100.00;100126.66;4915484;29;20040;-84
2022/06/29 01:34:01;;;;;;;13.43;4.32;;;;;;;21.28;100.00;100126.66;4915618;28;20039;-84
2022/06/29 01:36:27;;;;;;;20.55;5.78;;;;;;;21.25;100.00;100124.41;4915255;29;20048;-84
2022/06/29 01:38:52;;;;;;;14.32;4.68;;;;;;;21.34;100.00;100121.13;4915080;29;20496;-83
2022/06/29 01:41:18;;;;;;;22.02;4.95;;;;;;;21.39;100.00;100128.47;4915548;28;20036;-83
2022/06/29 01:43:44;;;;;;;17.48;4.93;;;;;;;21.47;100.00;100120.00;4915809;29;20040;-83
2022/06/29 01:46:12;;;;;;;24.88;5.63;;;;;;;21.27;100.00;100119.63;4915676;29;20154;-84
2022/06/29 01:48:38;;;;;;;14.80;4.80;;;;;;;21.18;100.00;100126.47;4915271;29;20115;-85
2022/06/29 01:51:03;;;;;;;19.05;5.03;;;;;;;21.18;100.00;100115.69;4910063;29;20052;-83
2022/06/29 01:53:29;;;;;;;21.30;5.32;;;;;;;21.23;100.00;100118.47;4905063;28;20020;-83
2022/06/29 01:55:55;;;;;;;28.35;5.97;;;;;;;21.24;100.00;100120.09;4905702;28;20116;-83
2022/06/29 01:58:21;;;;;;;15.80;5.45;;;;;;;21.24;100.00;100112.84;4910159;28;20032;-83
2022/06/29 02:00:47;;;;;;;15.30;5.40;;;;;;;21.08;100.00;100113.56;4907803;29;20100;-83
2022/06/29 02:03:13;;;;;;;17.88;5.82;;;;;;;20.96;100.00;100097.44;4899245;28;20044;-84
2022/06/29 02:05:39;;;;;;;21.42;5.80;;;;;;;21.04;100.00;100101.66;4899107;28;20037;-83
2022/06/29 02:08:06;;;;;;;19.55;5.22;;;;;;;21.06;100.00;100100.34;4899225;28;20129;-83
2022/06/29 02:10:34;;;;;;;24.83;5.45;;;;;;;21.00;100.00;100093.22;4898989;28;20083;-84
2022/06/29 02:13:00;;;;;;;12.80;4.72;;;;;;;21.17;100.00;100100.56;4899209;28;20040;-84
2022/06/29 02:15:26;;;;;;;20.65;5.07;;;;;;;21.09;100.00;100101.72;4899082;28;20133;-86
2022/06/29 02:17:52;;;;;;;17.38;4.65;;;;;;;20.87;100.00;100098.91;4898835;28;20068;-84
2022/06/29 02:20:18;;;;;;;17.55;5.05;;;;;;;20.79;100.00;100096.56;4899468;28;20041;-83
2022/06/29 02:22:43;;;;;;;16.40;5.40;;;;;;;20.82;100.00;100090.69;4898859;28;20033;-83
2022/06/29 02:25:10;;;;;;;15.90;5.78;;;;;;;20.78;100.00;100097.63;4899391;28;20127;-85
2022/06/29 02:27:45;;;;;;;20.48;6.18;;;;;;;20.69;100.00;100096.34;4899044;28;20032;-83
2022/06/29 02:30:13;;;;;;;14.75;5.45;;;;;;;20.62;100.00;100092.97;4899041;28;20067;-82
2022/06/29 02:35:25;;;;;;;24.60;7.03;;;;;;;20.43;100.00;100094.19;4898480;28;20044;-85
2022/06/29 02:37:51;;;;;;;18.73;6.07;;;;;;;20.38;100.00;100092.19;4898681;28;20039;-83
2022/06/29 02:40:16;;;;;;;18.50;6.05;;;;;;;20.36;100.00;100083.56;4899063;28;20426;-83
2022/06/29 02:42:42;;;;;;;14.48;5.55;;;;;;;20.34;100.00;100088.38;4898794;28;20033;-83
2022/06/29 02:45:08;;;;;;;17.55;5.25;;;;;;;20.31;100.00;100080.75;4898524;28;20099;-83
2022/06/29 02:47:33;;;;;;;17.73;5.60;;;;;;;20.29;100.00;100084.72;4898423;28;20056;-83
2022/06/29 02:49:59;;;;;;;13.43;5.05;;;;;;;20.30;100.00;100086.38;4898273;28;20068;-83
2022/06/29 02:52:25;;;;;;;17.85;5.22;;;;;;;20.35;100.00;100089.19;4897612;28;20054;-84
2022/06/29 02:54:50;;;;;;;20.55;5.68;;;;;;;20.30;100.00;100083.69;4898613;28;20024;-86
2022/06/29 02:57:16;;;;;;;14.15;4.63;;;;;;;20.28;100.00;100083.94;4899473;28;20036;-85
2022/06/29 02:59:42;;;;;;;14.80;4.68;;;;;;;20.33;100.00;100078.66;4899707;28;20037;-82
2022/06/29 03:02:07;;;;;;;11.52;4.60;;;;;;;20.37;100.00;100077.13;4898437;28;20536;-83
2022/06/29 03:04:34;;;;;;;10.90;3.97;;;;;;;20.34;100.00;100077.59;4897634;28;20068;-83
2022/06/29 03:07:00;;;;;;;11.77;4.03;;;;;;;20.40;100.00;100075.81;4897138;28;20051;-82
2022/06/29 03:09:26;;;;;;;15.45;4.82;;;;;;;20.34;100.00;100074.09;4896896;28;20072;-82
2022/06/29 03:11:52;;;;;;;13.38;4.60;;;;;;;20.30;100.00;100071.03;4898057;28;20136;-82
2022/06/29 03:14:17;;;;;;;15.50;4.60;;;;;;;20.32;100.00;100073.47;4899486;28;20037;-84
2022/06/29 03:16:43;;;;;;;16.30;4.88;;;;;;;20.33;100.00;100065.19;4897560;28;20091;-83
2022/06/29 03:19:08;;;;;;;15.40;5.55;;;;;;;20.34;100.00;100071.41;4897857;28;20036;-83
2022/06/29 03:21:34;;;;;;;14.65;5.38;;;;;;;20.31;100.00;100071.88;4897363;28;20497;-85
2022/06/29 03:24:01;;;;;;;11.00;5.38;;;;;;;20.39;100.00;100068.78;4897648;29;20040;-83
2022/06/29 03:26:26;;;;;;;24.20;6.32;;;;;;;20.26;100.00;100063.63;4897745;28;20044;-82
2022/06/29 03:28:52;;;;;;;14.13;6.63;;;;;;;20.22;100.00;100057.91;4897596;28;20032;-84
2022/06/29 03:31:19;;;;;;;14.68;6.25;;;;;;;20.25;100.00;100056.63;4896562;28;20487;-83
2022/06/29 03:33:45;;;;;;;16.38;7.13;;;;;;;20.20;100.00;100049.25;4897015;28;20033;-84
2022/06/29 03:36:11;;;;;;;23.40;7.18;;;;;;;20.15;100.00;100046.44;4897950;28;20043;-85
2022/06/29 03:38:36;;;;;;;16.33;7.38;;;;;;;20.11;100.00;100046.13;4897616;28;20405;-84
2022/06/29 03:41:03;;;;;;;19.58;8.40;;;;;;;20.11;100.00;100046.13;4900149;28;20102;-84
2022/06/29 03:43:28;;;;;;;17.85;7.55;;;;;;;20.14;100.00;100036.75;4898339;28;20123;-84
2022/06/29 03:45:54;;;;;;;15.82;7.82;;;;;;;20.20;100.00;100029.59;4898078;28;20561;-84
2022/06/29 03:48:19;;;;;;;20.13;8.80;;;;;;;20.19;100.00;100036.84;4898063;28;20542;-84
2022/06/29 03:51:22;;;;;;;21.55;9.40;;;;;;;20.15;100.00;100029.50;4898644;29;20059;-86
2022/06/29 03:53:47;;;;;;;21.48;9.68;;;;;;;20.07;100.00;100036.88;4898699;28;20075;-83
2022/06/29 03:56:13;;;;;;;23.80;9.15;;;;;;;20.10;100.00;100032.91;4899236;29;20064;-85
2022/06/29 03:58:38;;;;;;;21.00;9.43;;;;;;;20.11;100.00;100029.97;4912898;28;20084;-84
2022/06/29 04:01:04;;;;;;;17.33;8.60;;;;;;;20.13;100.00;100033.25;4920411;28;20032;-83
2022/06/29 04:03:30;;;;;;;17.98;9.50;;;;;;;20.09;100.00;100032.06;4920588;28;20043;-83
2022/06/29 04:05:56;;;;;;;21.80;9.90;;;;;;;20.07;100.00;100042.25;4919686;28;20128;-81
2022/06/29 04:08:22;;;;;;;20.45;9.73;;;;;;;20.08;100.00;100035.00;4913355;28;20016;-80
2022/06/29 04:10:47;;;;;;;20.25;8.80;;;;;;;20.06;100.00;100031.72;4917863;28;20032;-82
2022/06/29 04:13:13;;;;;;;22.52;9.52;;;;;;;20.08;100.00;100041.19;4915903;28;20045;-82
2022/06/29 04:15:39;;;;;;;23.88;8.40;;;;;;;20.11;100.00;100034.53;4907153;29;20044;-82
2022/06/29 04:18:05;;;;;;;16.65;8.10;;;;;;;20.09;100.00;100034.75;4912459;28;20025;-83
2022/06/29 04:23:16;;;;;;;26.20;8.98;;;;;;;20.16;100.00;100031.13;4918630;28;20072;-81
2022/06/29 04:25:41;;;;;;;12.70;7.80;;;;;;;20.19;100.00;100027.97;4905115;29;20374;-83
2022/06/29 04:28:07;;;;;;;18.67;8.45;;;;;;;20.17;100.00;100032.78;4899479;28;20083;-81
2022/06/29 04:30:33;;;;;;;16.15;6.97;;;;;;;20.25;100.00;100035.09;4897761;28;20036;-84
2022/06/29 04:32:59;;;;;;;18.00;7.45;;;;;;;20.33;100.00;100035.59;4896264;28;20044;-84
2022/06/29 04:35:25;;;;;;;19.30;7.65;;;;;;;20.35;100.00;100032.66;4895571;28;20182;-81
2022/06/29 04:37:51;;;;;;;20.40;7.45;;;;;;;20.38;100.00;100040.25;4896783;28;20036;-81
2022/06/29 04:40:17;;;;;;;15.68;6.55;;;;;;;20.43;100.00;100037.66;4896383;28;20466;-81
2022/06/29 04:42:42;;;;;;;17.15;7.30;;;;;;;20.54;100.00;100044.91;4897657;28;20045;-82
2022/06/29 04:46:19;;;;;;;15.18;5.68;;;;;;;20.56;100.00;100043.59;4899812;28;20029;-83
2022/06/29 04:48:00;;;;;;;16.40;6.40;;;;;;;20.62;100.00;100052.59;4899028;28;20112;-84
2022/06/29 04:50:27;;;;;;;14.95;5.68;;;;;;;20.70;100.00;100046.00;4897333;28;20032;-82
2022/06/29 04:52:53;;;;;;;14.45;5.03;;;;;;;20.78;100.00;100056.41;4900089;29;20040;-83
2022/06/29 04:55:18;;;;;;;15.25;5.20;;;;;;;20.86;100.00;100053.31;4901129;28;20045;-81
2022/06/29 04:57:44;;;;;;;14.10;4.72;;;;;;;20.83;100.00;100059.19;4909458;28;20017;-85
2022/06/29 05:00:10;;;;;;;10.20;4.43;;;;;;;20.92;100.00;100055.06;4914195;28;20037;-84
2022/06/29 05:02:35;;;;;;;11.80;4.63;;;;;;;20.98;100.00;100054.91;4908061;28;20028;-82
2022/06/29 05:05:01;;;;;;;11.02;4.90;;;;;;;21.02;100.00;100058.75;4899417;28;20566;-83
2022/06/29 05:07:26;;;;;;;10.63;4.60;;;;;;;21.03;100.00;100063.09;4897124;28;20140;-84
2022/06/29 05:09:52;;;;;;;13.50;4.70;;;;;;;21.18;100.00;100056.41;4895879;28;20497;-83
2022/06/29 05:12:17;;;;;;;9.68;4.03;;;;;;;21.24;100.00;100066.19;4895462;28;20048;-82
2022/06/29 05:14:43;;;;;;;11.93;4.07;;;;;;;21.16;100.00;100066.59;4895727;28;20040;-84
2022/06/29 05:17:08;;;;;;;12.98;3.90;;;;;;;21.07;100.00;100064.25;4894599;28;20508;-87
2022/06/29 05:19:34;;;;;;;14.82;4.40;;;;;;;21.10;100.00;100062.97;4895753;28;20037;-83
2022/06/29 05:22:00;;;;;;;17.90;4.18;;;;;;;21.08;100.00;100060.47;4895878;28;20110;-85
2022/06/29 05:24:25;;;;;;;10.85;3.88;;;;;;;21.05;100.00;100052.88;4895437;28;20052;-81
2022/06/29 05:26:51;;;;;;;13.65;3.60;;;;;;;21.14;100.00;100061.44;4893815;28;20021;-84
2022/06/29 05:29:19;;;;;;;19.42;3.90;;;;;;;21.23;100.00;100053.78;4895611;28;20029;-82
2022/06/29 05:31:45;;;;;;;16.23;3.72;;;;;;;21.33;100.00;100064.75;4898945;28;20040;-84
2022/06/29 05:34:10;;;;;;;12.43;3.58;;;;;;;21.26;100.00;100064.06;4898453;28;20103;-83
2022/06/29 05:36:36;;;;;;;11.05;3.95;;;;;;;21.31;100.00;100056.09;4898475;28;20040;-82
2022/06/29 05:39:02;;;;;;;13.13;4.32;;;;;;;21.30;100.00;100059.84;4897564;28;20128;-82
2022/06/29 05:41:27;;;;;;;15.45;3.83;;;;;;;21.49;100.00;100062.06;4898823;28;20064;-83
2022/06/29 05:43:53;;;;;;;12.85;3.85;;;;;;;21.68;100.00;100057.22;4898729;28;20051;-83
2022/06/29 05:46:22;;;;;;;14.43;3.47;;;;;;;21.72;100.00;100061.06;4897442;28;20502;-80
2022/06/29 05:48:47;;;;;;;12.02;3.97;;;;;;;21.81;100.00;100061.50;4898500;28;20043;-83
2022/06/29 05:51:13;;;;;;;14.75;3.40;;;;;;;21.91;100.00;100062.47;4898642;28;20033;-82
2022/06/29 05:53:39;;;;;;;14.02;3.70;;;;;;;21.93;100.00;100060.38;4898365;28;20059;-81
2022/06/29 05:56:04;;;;;;;12.35;3.78;;;;;;;21.92;100.00;100064.13;4898292;28;20033;-85
2022/06/29 05:58:30;;;;;;;12.40;3.83;;;;;;;22.15;100.00;100063.91;4898273;28;20045;-83
2022/06/29 06:00:55;;;;;;;16.48;4.20;;;;;;;22.19;100.00;100063.41;4898178;28;20494;-82
2022/06/29 06:03:21;;;;;;;20.30;4.78;;;;;;;22.26;100.00;100058.66;4898381;28;20474;-84
2022/06/29 06:05:46;;;;;;;20.88;4.63;;;;;;;22.32;100.00;100066.56;4898284;28;20033;-83
2022/06/29 06:08:13;;;;;;;17.67;4.13;;;;;;;22.40;100.00;100066.16;4898554;28;20048;-83
2022/06/29 06:10:39;;;;;;;9.57;4.18;;;;;;;22.45;100.00;100068.91;4898334;28;20040;-83
2022/06/29 06:13:08;;;;;;;12.80;4.50;;;;;;;22.54;100.00;100071.97;4898200;28;20049;-82
2022/06/29 06:15:35;;;;;;;23.75;4.75;;;;;;;22.70;100.00;100071.16;4896935;28;20072;-82
2022/06/29 06:18:01;;;;;;;21.38;4.68;;;;;;;22.91;100.00;100073.00;4898015;28;20099;-81
2022/06/29 06:20:28;;;;;;;24.00;4.95;;;;;;;22.91;100.00;100073.00;4898057;28;20045;-83
2022/06/29 06:22:54;;;;;;;20.15;5.00;;;;;;;22.85;100.00;100065.91;4898145;28;20041;-81
2022/06/29 06:25:20;;;;;;;32.83;5.53;;;;;;;23.04;100.00;100064.50;4897989;28;20070;-84
2022/06/29 06:27:45;;;;;;;20.73;4.88;;;;;;;23.05;100.00;100063.44;4898382;28;20047;-85
2022/06/29 06:30:12;;;;;;;22.10;6.18;;;;;;;23.09;100.00;100069.97;4898501;28;20115;-85
2022/06/29 06:32:39;;;;;;;23.17;5.43;;;;;;;23.20;100.00;100060.03;4897862;28;20047;-83
2022/06/29 06:35:06;;;;;;;23.70;5.03;;;;;;;23.23;100.00;100058.75;4888476;28;20041;-82
2022/06/29 06:37:31;;;;;;;15.38;5.25;;;;;;;23.47;100.00;100065.47;4896593;28;20489;-82
2022/06/29 06:42:41;;;;;;;16.35;4.70;;;;;;;23.81;100.00;100056.00;4896233;28;20080;-85
2022/06/29 06:45:07;;;;;;;23.75;5.70;;;;;;;24.04;100.00;100054.81;4897603;28;20094;-83
2022/06/29 06:47:32;;;;;;;23.30;5.35;;;;;;;24.17;100.00;100062.50;4898346;28;20057;-84
2022/06/29 06:49:58;;;;;;;22.00;5.35;;;;;;;24.22;100.00;100059.81;4896944;28;20426;-82
2022/06/29 06:52:24;;;;;;;15.55;5.05;;;;;;;24.54;100.00;100054.28;4898158;28;20040;-81
2022/06/29 06:54:49;;;;;;;17.02;4.88;;;;;;;25.62;100.00;100060.53;4898126;28;20087;-83
2022/06/29 06:57:15;;;;;;;20.77;5.10;;;;;;;25.80;100.00;100068.13;4899421;28;20029;-82
2022/06/29 06:59:40;;;;;;;20.90;4.63;;;;;;;27.16;100.00;100064.94;4903804;28;20040;-85
2022/06/29 07:02:06;;;;;;;21.52;4.65;;;;;;;26.86;100.00;100067.84;4905784;28;20083;-84
2022/06/29 07:04:32;;;;;;;17.85;4.68;;;;;;;26.68;100.00;100063.81;4911679;28;20032;-86
2022/06/29 07:06:58;;;;;;;31.90;5.18;;;;;;;26.45;100.00;100059.00;4944007;28;20040;-86
2022/06/29 07:09:26;;;;;;;19.10;4.20;;;;;;;26.73;100.00;100060.28;4948588;28;20052;-85
2022/06/29 07:11:52;;;;;;;21.33;4.13;;;;;;;26.65;100.00;100063.56;4945280;28;20035;-86
2022/06/29 07:14:21;;;;;;;13.07;3.38;;;;;;;27.83;94.99;100068.81;4990201;28;20036;-91
2022/06/29 07:16:46;;;;;;;15.40;3.35;;;;;;;27.21;94.41;100067.63;4939064;29;20035;-88
2022/06/29 07:19:15;;;;;;;14.68;3.60;;;;;;;27.08;94.67;100070.97;4926614;28;20091;-86
2022/06/29 07:21:55;;;;;;;22.30;3.08;;;;;;;27.11;94.04;100073.13;4918906;28;20040;-88
2022/06/29 07:24:20;;;;;;;17.33;3.85;;;;;;;27.53;91.15;100071.78;4925025;28;20067;-86
2022/06/29 07:26:45;;;;;;;13.90;3.70;;;;;;;27.73;87.89;100074.34;4919470;28;20036;-84
2022/06/29 07:29:11;;;;;;;14.40;3.03;;;;;;;27.10;92.15;100071.53;4918102;28;20046;-86
2022/06/29 07:31:37;;;;;;;16.40;3.13;;;;;;;26.89;93.09;100063.75;4903132;29;20114;-85
2022/06/29 07:34:03;;;;;;;21.23;3.03;;;;;;;26.49;92.75;100065.53;4904417;28;20517;-87
2022/06/29 07:36:29;;;;;;;10.10;2.90;;;;;;;26.30;93.07;100060.97;4898979;28;20486;-86
2022/06/29 07:38:57;;;;;;;17.70;2.90;;;;;;;26.39;94.42;100057.41;4944603;28;20034;-86
2022/06/29 07:41:23;;;;;;;14.20;3.40;;;;;;;26.39;92.43;100056.59;4977532;28;20036;-85
2022/06/29 07:43:52;;;;;;;13.43;2.80;;;;;;;26.85;87.83;100063.50;5004970;28;20038;-83
2022/06/29 07:46:21;;;;;;;16.85;2.90;;;;;;;27.22;85.70;100058.38;5016451;28;20376;-86
2022/06/29 07:48:46;;;;;;;13.48;2.58;;;;;;;27.75;82.67;100058.53;4979396;28;20062;-83
2022/06/29 07:51:15;;;;;;;14.00;2.60;;;;;;;28.08;82.17;100060.41;4937745;29;20042;-82
2022/06/29 07:53:41;;;;;;;16.85;3.58;;;;;;;28.95;77.18;100058.28;4935670;28;20039;-86
2022/06/29 07:56:09;;;;;;;15.02;2.53;;;;;;;29.81;74.12;100059.66;4937277;29;20040;-84
2022/06/29 07:58:34;;;;;;;13.43;3.03;;;;;;;29.54;74.13;100060.41;4935222;28;20066;-86
2022/06/29 08:01:00;;;;;;;16.40;2.97;;;;;;;30.13;72.01;100059.66;4936366;28;20067;-86
2022/06/29 08:03:25;;;;;;;20.50;3.38;;;;;;;31.47;66.35;100058.16;4918695;29;20155;-87
2022/06/29 08:05:51;;;;;;;18.17;2.78;;;;;;;30.85;67.41;100062.59;4931138;29;20036;-87
2022/06/29 08:08:17;;;;;;;17.38;2.90;;;;;;;30.24;68.39;100052.88;4943309;28;20510;-85
2022/06/29 08:10:51;;;;;;;18.60;2.83;;;;;;;29.96;69.67;100062.16;5110868;23;20013;-85
2022/06/29 08:13:17;;;;;;;13.68;2.78;;;;;;;30.48;68.83;100063.66;4919237;29;20047;-87
2022/06/29 08:15:45;;;;;;;9.85;2.65;;;;;;;30.16;69.77;100061.78;4920855;28;20060;-87
2022/06/29 08:18:15;;;;;;;15.25;2.65;;;;;;;30.43;68.10;100060.19;4944380;28;20028;-85
2022/06/29 08:20:42;;;;;;;11.10;2.35;;;;;;;30.70;69.26;100065.66;5020894;28;20034;-86
2022/06/29 08:23:09;;;;;;;10.80;2.20;;;;;;;31.05;67.69;100066.84;5019053;28;20104;-84
2022/06/29 08:25:34;;;;;;;13.27;2.83;;;;;;;31.21;65.95;100060.69;5017784;28;20053;-85
2022/06/29 08:28:01;;;;;;;14.93;2.88;;;;;;;31.49;64.43;100053.16;5002047;28;20536;-87
2022/06/29 08:30:26;;;;;;;13.50;2.83;;;;;;;31.04;65.75;100060.56;5017904;28;20041;-85
2022/06/29 08:32:52;;;;;;;19.00;3.03;;;;;;;30.98;65.04;100059.06;5021111;28;20056;-83
2022/06/29 08:35:18;;;;;;;10.43;2.95;;;;;;;30.84;66.85;100060.97;5024162;28;20125;-83
2022/06/29 08:37:46;;;;;;;15.05;2.38;;;;;;;31.19;65.25;100057.44;4942711;23;20417;-88
2022/06/29 08:40:14;;;;;;;15.02;2.75;;;;;;;31.21;64.52;100055.22;5010742;28;20096;-89
2022/06/29 08:42:47;;;;;;;18.45;2.90;;;;;;;31.49;64.22;100055.09;5023757;28;20033;-84
2022/06/29 08:45:19;;;;;;;14.70;2.92;;;;;;;31.09;65.53;100057.69;5018643;28;20029;-84
2022/06/29 08:47:44;;;;;;;14.38;3.13;;;;;;;31.50;64.61;100051.22;5006725;28;20033;-84
2022/06/29 08:50:11;;;;;;;14.32;2.85;;;;;;;31.66;63.87;100060.72;5008663;28;20118;-87
2022/06/29 08:52:39;;;;;;;19.27;2.50;;;;;;;31.97;62.49;100063.47;5016622;28;20044;-87
2022/06/29 08:55:07;;;;;;;9.70;2.70;;;;;;;31.97;53.40;100060.75;5018764;28;20034;-86
2022/06/29 08:57:44;;;;;;;12.93;2.70;;;;;;;31.62;55.45;100048.78;5010280;28;20034;-86
2022/06/29 09:00:11;;;;;;;20.85;2.95;;;;;;;31.86;54.72;100054.72;4940395;28;20055;-84
2022/06/29 09:02:37;;;;;;;11.30;2.45;;;;;;;32.10;54.08;100060.69;4936061;28;20074;-86
2022/06/29 09:05:04;;;;;;;16.15;2.70;;;;;;;31.94;55.65;100062.19;4933024;28;20420;-83
2022/06/29 09:07:29;;;;;;;13.30;3.08;;;;;;;32.14;53.50;100061.69;4933544;29;20093;-81
2022/06/29 09:10:18;;;;;;;12.27;2.67;;;;;;;31.89;53.23;100058.75;4932973;28;20036;-81
2022/06/29 09:12:52;;;;;;;17.65;2.83;;;;;;;32.22;52.83;100063.63;4939161;29;20044;-85
2022/06/29 09:15:39;;;;;;;10.52;2.35;;;;;;;32.46;52.88;100067.91;4942269;29;20078;-82
2022/06/29 09:18:32;;;;;;;16.77;3.10;;;;;;;32.73;49.63;100062.19;4938587;28;20044;-85
2022/06/29 09:21:03;;;;;;;15.02;2.97;;;;;;;32.32;49.84;100059.00;4937208;29;20046;-81
2022/06/29 09:23:30;;;;;;;;;;;;;;;32.99;48.99;100060.31;4937160;29;20036;-82
2022/06/29 09:25:59;;;;;;;16.77;2.90;;;;;;;33.25;47.79;100057.59;4937687;29;19918;-81
2022/06/29 09:28:28;;;;;;;12.10;2.53;;;;;;;32.87;47.81;100057.38;4947092;28;20030;-83
2022/06/29 09:30:58;;;;;;;12.35;2.53;;;;;;;33.26;46.84;100067.44;5019255;28;20122;-84
2022/06/29 09:33:29;;;;;;;17.83;3.10;;;;;;;33.19;46.66;100054.19;5019311;28;20037;-83
2022/06/29 09:36:10;;;;;;;15.45;2.60;;;;;;;33.65;45.56;100060.97;5019856;28;20066;-83
2022/06/29 09:38:39;;;;;;;18.17;2.72;;;;;;;33.41;45.89;100055.94;4980925;28;20056;-81
2022/06/29 09:41:13;;;;;;;14.82;2.58;;;;;;;32.82;47.57;100054.78;4937818;28;20043;-84
2022/06/29 09:43:41;;;;;;;11.18;2.80;;;;;;;33.04;47.68;100051.91;4916271;29;20047;-83
2022/06/29 09:46:14;;;;;;;10.57;2.67;;;;;;;32.67;48.18;100052.50;4891588;28;20055;-84
2022/06/29 09:48:42;;;;;;;11.93;3.47;;;;;;;32.42;49.21;100055.94;4927783;28;20088;-85
2022/06/29 09:54:07;;;;;;;12.05;2.88;;;;;;;32.57;49.13;100055.53;4938867;28;20048;-86
2022/06/29 09:56:33;;;;;;;11.35;2.70;;;;;;;32.50;49.62;100047.75;4917132;29;20040;-90
2022/06/29 09:59:00;;;;;;;17.85;3.08;;;;;;;32.59;48.16;100056.03;4960203;28;20030;-88
2022/06/29 10:04:15;;;;;;;12.13;2.10;;;;;;;32.66;48.32;100039.91;5015724;28;20061;-88
2022/06/29 10:06:41;;;;;;;10.00;2.60;;;;;;;32.59;47.47;100042.31;5015262;28;20046;-84
2022/06/29 10:09:07;;;;;;;9.88;2.45;;;;;;;32.45;46.73;100042.41;4962751;28;20068;-92
2022/06/29 10:15:05;;;;;;;13.52;2.88;;;;;;;32.64;48.24;100040.25;4938236;28;20065;-83
2022/06/29 10:17:49;;;;;;;14.55;2.90;;;;;;;32.95;46.73;100031.06;4939841;28;20032;-87
2022/06/29 10:20:41;;;;;;;14.27;2.38;;;;;;;33.07;46.06;100034.78;4942909;29;20071;-86
2022/06/29 10:23:06;;;;;;;13.10;2.50;;;;;;;32.82;46.07;100038.31;4946165;28;20034;-90
2022/06/29 10:25:32;;;;;;;12.65;2.45;;;;;;;33.40;45.78;100035.13;4942564;29;20031;-86
2022/06/29 10:28:16;;;;;;;12.40;2.70;;;;;;;33.75;43.79;100030.38;4946231;28;20052;-90
2022/06/29 10:30:44;;;;;;;10.75;2.85;;;;;;;33.85;43.53;100035.53;4939119;28;20468;-85
2022/06/29 10:33:36;;;;;;;14.18;2.90;;;;;;;33.57;43.28;100026.03;4940928;29;20039;-87
2022/06/29 10:36:06;;;;;;;9.20;2.22;;;;;;;33.66;43.87;100029.59;4944322;28;20257;-86
2022/06/29 10:38:58;;;;;;;15.02;3.05;;;;;;;33.07;44.59;100018.31;4940582;28;20570;-89
2022/06/29 10:44:08;;;;;;;12.07;3.10;;;;;;;33.32;43.50;100022.19;4938523;28;20063;-80
2022/06/29 10:47:12;;;;;;;12.98;2.72;;;;;;;33.21;43.83;100024.47;4937069;28;20477;-85
2022/06/29 10:49:38;;;;;;;11.18;2.53;;;;;;;33.37;43.64;100021.22;4937599;28;20489;-84
2022/06/29 10:52:04;;;;;;;13.02;3.10;;;;;;;33.96;41.99;100023.03;4919929;29;20043;-87
2022/06/29 10:54:30;;;;;;;11.07;3.00;;;;;;;33.82;41.72;100033.44;5008450;28;20038;-85
2022/06/29 10:56:56;;;;;;;15.05;3.00;;;;;;;33.94;41.67;100024.53;4993501;28;20111;-84
2022/06/29 10:59:35;;;;;;;10.50;2.60;;;;;;;34.14;41.76;100027.34;4927341;28;20090;-86
2022/06/29 11:02:11;;;;;;;10.35;2.30;;;;;;;33.90;40.94;100029.88;4913221;29;20056;-87
2022/06/29 11:04:38;;;;;;;11.20;2.45;;;;;;;33.05;43.10;100019.75;4919519;29;20393;-85
2022/06/29 11:12:49;;;;;;;12.55;2.67;;;;;;;34.50;40.55;100017.78;4921374;28;20068;-88
2022/06/29 11:15:45;;;;;;;13.82;2.70;;;;;;;34.82;39.80;100017.13;4921986;29;20086;-86
2022/06/29 11:18:13;;;;;;;11.00;3.10;;;;;;;34.56;40.28;100019.22;4924436;28;20042;-84
2022/06/29 11:20:40;;;;;;;13.48;2.70;;;;;;;34.41;39.62;100017.81;4919947;28;20389;-90
2022/06/29 11:23:21;;;;;;;16.50;3.38;;;;;;;34.45;39.68;100007.78;4920625;29;20136;-87
2022/06/29 11:25:49;;;;;;;15.98;2.83;;;;;;;34.80;39.11;100013.91;4920072;29;20043;-88
2022/06/29 11:28:20;;;;;;;15.95;2.75;;;;;;;34.27;40.60;100007.06;4903943;28;20052;-88
2022/06/29 11:31:03;;;;;;;13.38;2.33;;;;;;;34.45;40.74;100012.47;4920969;29;20028;-88
2022/06/29 11:33:33;;;;;;;16.52;2.78;;;;;;;33.42;42.36;99994.38;4924629;29;20128;-85
2022/06/29 11:36:30;;;;;;;13.50;2.75;;;;;;;33.10;43.26;99990.22;4921802;29;20052;-86
2022/06/29 11:39:47;;;;;;;14.13;2.72;;;;;;;33.14;43.05;99991.22;4910749;29;20075;-85
2022/06/29 11:45:21;;;;;;;14.93;3.20;;;;;;;32.66;44.62;99979.53;4840990;29;20050;-84